Time;durP1;ratioP1;P1;durP2;ratioP2;P2;SDS_P1;SDS_P2;PMS_P1;PMS_P2;Temp;Humidity;BMP_temperature;BMP_pressure;BME280_temperature;BME280_humidity;BME280_pressure;Samples;Min_cycle;Max_cycle;Signal;HPM_P1;HPM_P2
2021/12/21 00:01:06;;;;;;;0.10;0.10;;;2.10;99.90;226.50;231333.00;;;;4989125;28;20204;-74
2021/12/21 00:03:34;;;;;;;0.10;0.10;;;1.90;99.90;226.50;231333.00;;;;4990602;28;20228;-74
2021/12/21 00:06:03;;;;;;;0.10;0.10;;;1.70;99.90;226.50;231333.00;;;;4993674;28;20605;-74
2021/12/21 00:08:31;;;;;;;0.10;0.10;;;1.70;99.90;226.50;231333.00;;;;4994243;28;20188;-74
2021/12/21 00:11:15;;;;;;;0.10;0.10;;;1.70;99.90;226.50;231333.00;;;;4993346;28;20231;-74
2021/12/21 00:13:59;;;;;;;0.10;0.10;;;1.70;99.90;226.50;231333.00;;;;4977244;28;20599;-73
2021/12/21 00:16:46;;;;;;;0.05;0.05;;;1.60;99.90;226.50;231333.00;;;;4979560;28;20632;-73
2021/12/21 00:19:37;;;;;;;0.10;0.10;;;1.60;99.90;226.50;231333.00;;;;4992397;28;20200;-74
2021/12/21 00:22:15;;;;;;;0.10;0.10;;;1.80;99.90;226.50;231333.00;;;;4993466;28;20195;-73
2021/12/21 00:24:47;;;;;;;0.10;0.10;;;1.80;99.90;226.50;231333.00;;;;4993809;28;20216;-73
2021/12/21 00:27:16;;;;;;;0.10;0.10;;;1.90;99.90;226.50;231333.00;;;;4994079;28;20201;-73
2021/12/21 00:29:44;;;;;;;0.10;0.10;;;1.90;99.90;226.50;231333.00;;;;4993586;28;20200;-73
2021/12/21 00:32:14;;;;;;;0.10;0.10;;;1.80;99.90;226.50;231333.00;;;;4993035;28;20227;-74
2021/12/21 00:34:42;;;;;;;0.10;0.10;;;1.70;99.90;226.50;231333.00;;;;4990756;28;20220;-73
2021/12/21 00:37:10;;;;;;;0.10;0.10;;;1.60;99.90;226.50;231333.00;;;;4992095;28;20200;-73
2021/12/21 00:39:38;;;;;;;0.10;0.10;;;1.30;99.90;226.50;231333.00;;;;4991511;28;20236;-73
2021/12/21 00:42:07;;;;;;;0.10;0.10;;;1.20;99.90;226.50;231333.00;;;;4990522;28;20260;-74
2021/12/21 00:44:35;;;;;;;0.10;0.10;;;1.00;99.90;226.50;231333.00;;;;4989683;28;20263;-72
2021/12/21 00:47:04;;;;;;;0.10;0.10;;;0.90;99.90;226.50;231333.00;;;;4990700;28;20610;-72
2021/12/21 00:49:35;;;;;;;0.10;0.10;;;0.80;99.90;226.50;231333.00;;;;4989739;28;20208;-72
2021/12/21 00:52:04;;;;;;;0.20;0.20;;;0.90;99.90;226.50;231333.00;;;;5041458;22;20231;-73
2021/12/21 00:54:32;;;;;;;0.10;0.10;;;0.80;99.90;226.50;231333.00;;;;5032608;28;20211;-72
2021/12/21 00:57:00;;;;;;;0.10;0.10;;;0.80;99.90;226.50;231333.00;;;;5033639;28;20609;-73
2021/12/21 00:59:27;;;;;;;0.10;0.10;;;0.80;99.90;226.50;231333.00;;;;5036108;28;20199;-73
2021/12/21 01:01:55;;;;;;;0.10;0.10;;;0.80;99.90;226.50;231333.00;;;;5032182;28;20243;-74
2021/12/21 01:04:29;;;;;;;0.10;0.10;;;0.80;99.90;226.50;231333.00;;;;5032494;28;20225;-74
2021/12/21 01:07:05;;;;;;;0.20;0.20;;;0.90;99.90;226.50;231333.00;;;;5032581;28;20195;-72
2021/12/21 01:10:09;;;;;;;0.20;0.20;;;0.90;99.90;226.50;231333.00;;;;5027572;28;20199;-73
2021/12/21 01:12:48;;;;;;;0.10;0.10;;;1.00;99.90;226.50;231333.00;;;;5032302;28;20229;-72
2021/12/21 01:15:30;;;;;;;0.10;0.10;;;1.00;99.90;226.50;231333.00;;;;5029012;28;20203;-73
2021/12/21 01:18:03;;;;;;;0.10;0.10;;;1.10;99.90;226.50;231333.00;;;;5032591;28;20195;-73
2021/12/21 01:20:36;;;;;;;0.10;0.10;;;1.30;99.90;226.50;231333.00;;;;5032684;28;20286;-73
2021/12/21 01:25:58;;;;;;;0.10;0.10;;;1.40;99.90;226.50;231333.00;;;;5031239;28;20211;-73
2021/12/21 01:28:36;;;;;;;0.15;0.15;;;1.30;99.90;226.50;231333.00;;;;5024154;28;20194;-72
2021/12/21 01:31:18;;;;;;;0.10;0.10;;;1.20;99.90;226.50;231333.00;;;;5032348;28;20613;-73
2021/12/21 01:33:57;;;;;;;0.10;0.10;;;1.10;99.90;226.50;231333.00;;;;5020923;28;20219;-73
2021/12/21 01:36:33;;;;;;;0.10;0.10;;;1.00;99.90;226.50;231333.00;;;;5031388;28;20729;-72
2021/12/21 01:39:11;;;;;;;0.10;0.10;;;0.70;99.90;226.50;231333.00;;;;5030111;28;20195;-72
2021/12/21 01:41:47;;;;;;;0.10;0.10;;;0.60;99.90;226.50;231333.00;;;;5029980;28;20249;-72
2021/12/21 01:44:28;;;;;;;0.10;0.10;;;0.50;99.90;226.50;231333.00;;;;5032206;28;20205;-73
2021/12/21 01:49:45;;;;;;;0.10;0.10;;;0.40;99.90;226.50;231333.00;;;;5033080;28;20199;-74
2021/12/21 01:52:16;;;;;;;0.10;0.10;;;0.40;99.90;226.50;231333.00;;;;5028169;28;20234;-73
2021/12/21 01:54:47;;;;;;;0.10;0.10;;;0.30;99.90;226.50;231333.00;;;;5030565;28;20609;-75
2021/12/21 01:57:16;;;;;;;0.10;0.10;;;0.40;99.90;226.50;231333.00;;;;5033552;28;20559;-73
2021/12/21 01:59:47;;;;;;;0.10;0.10;;;0.40;99.90;226.50;231333.00;;;;5033645;28;20195;-73
2021/12/21 02:02:20;;;;;;;0.10;0.10;;;0.50;99.90;226.50;231333.00;;;;5033481;28;20234;-73
2021/12/21 02:04:48;;;;;;;0.10;0.10;;;0.60;99.90;226.50;231333.00;;;;5040456;28;20254;-74
2021/12/21 02:07:16;;;;;;;0.20;0.20;;;0.60;99.90;226.50;231333.00;;;;5042243;28;20199;-73
2021/12/21 02:09:46;;;;;;;0.20;0.20;;;0.70;99.90;226.50;231333.00;;;;5040776;28;20241;-73
2021/12/21 02:12:17;;;;;;;0.10;0.10;;;0.80;99.90;226.50;231333.00;;;;5041764;28;20230;-73
2021/12/21 02:14:54;;;;;;;0.17;0.17;;;0.80;99.90;226.50;231333.00;;;;5036490;28;20229;-72
2021/12/21 02:17:56;;;;;;;0.10;0.10;;;0.80;99.90;226.50;231333.00;;;;5031217;28;20202;-72
2021/12/21 02:20:38;;;;;;;0.20;0.20;;;0.90;99.90;226.50;231333.00;;;;5030025;28;20201;-73
2021/12/21 02:23:10;;;;;;;0.10;0.10;;;0.90;99.90;226.50;231333.00;;;;5023300;28;20210;-73
2021/12/21 02:28:36;;;;;;;0.10;0.10;;;1.00;99.90;226.50;231333.00;;;;5042751;28;20200;-71
2021/12/21 02:31:04;;;;;;;0.10;0.10;;;1.10;99.90;226.50;231333.00;;;;5031271;28;20210;-73
2021/12/21 02:33:33;;;;;;;0.10;0.10;;;0.80;99.90;226.50;231333.00;;;;5029276;28;20632;-73
2021/12/21 02:36:05;;;;;;;0.10;0.10;;;0.60;99.90;226.50;231333.00;;;;5030838;28;20245;-73
2021/12/21 02:38:33;;;;;;;0.10;0.10;;;0.50;99.90;226.50;231333.00;;;;5022848;28;20191;-72
2021/12/21 02:41:01;;;;;;;0.10;0.10;;;0.50;99.90;226.50;231333.00;;;;5029995;28;20253;-73
2021/12/21 02:43:29;;;;;;;0.20;0.20;;;0.40;99.90;226.50;231333.00;;;;5045219;28;20204;-72
2021/12/21 02:45:58;;;;;;;0.10;0.10;;;0.40;99.90;226.50;231333.00;;;;5031111;28;20199;-72
2021/12/21 02:48:26;;;;;;;0.13;0.13;;;0.50;99.90;226.50;231333.00;;;;5030727;28;20206;-76
2021/12/21 02:50:54;;;;;;;0.10;0.10;;;0.50;99.90;226.50;231333.00;;;;5029190;28;20229;-73
2021/12/21 02:53:24;;;;;;;0.10;0.10;;;0.50;99.90;226.50;231333.00;;;;5030695;28;20223;-73
2021/12/21 02:55:51;;;;;;;0.10;0.10;;;0.50;99.90;226.50;231333.00;;;;5031036;28;20561;-73
2021/12/21 02:58:20;;;;;;;0.10;0.10;;;0.60;99.90;226.50;231333.00;;;;5030441;28;20257;-72
2021/12/21 03:00:48;;;;;;;0.10;0.10;;;0.60;99.90;226.50;231333.00;;;;5030424;28;20191;-73
2021/12/21 03:03:16;;;;;;;0.10;0.10;;;0.70;99.90;226.50;231333.00;;;;5030044;28;20237;-72
2021/12/21 03:05:49;;;;;;;0.20;0.20;;;0.70;99.90;226.50;231333.00;;;;5020814;28;20200;-73
2021/12/21 03:08:21;;;;;;;0.10;0.10;;;0.80;99.90;226.50;231333.00;;;;5030538;28;20203;-75
2021/12/21 03:11:06;;;;;;;0.10;0.10;;;0.90;99.90;226.50;231333.00;;;;5030805;28;20233;-75
2021/12/21 03:16:21;;;;;;;0.10;0.10;;;0.90;99.90;226.50;231333.00;;;;5030557;28;20738;-74
2021/12/21 03:18:49;;;;;;;0.10;0.10;;;0.90;99.90;226.50;231333.00;;;;5030169;28;20195;-74
2021/12/21 03:21:17;;;;;;;0.10;0.10;;;0.90;99.90;226.50;231333.00;;;;5028639;28;20265;-74
2021/12/21 03:23:45;;;;;;;0.10;0.10;;;0.90;99.90;226.50;231333.00;;;;5030047;28;20265;-74
2021/12/21 03:26:15;;;;;;;0.10;0.10;;;0.90;99.90;226.50;231333.00;;;;5024968;28;20296;-74
2021/12/21 03:28:42;;;;;;;0.10;0.10;;;0.90;99.90;226.50;231333.00;;;;5026499;28;20199;-73
2021/12/21 03:31:11;;;;;;;0.10;0.10;;;0.90;99.90;226.50;231333.00;;;;5029547;28;20215;-74
2021/12/21 03:33:38;;;;;;;0.10;0.10;;;0.90;99.90;226.50;231333.00;;;;5029660;28;20273;-73
2021/12/21 03:36:07;;;;;;;0.10;0.10;;;0.80;99.90;226.50;231333.00;;;;5029914;28;20606;-73
2021/12/21 03:38:37;;;;;;;0.10;0.10;;;0.80;99.90;226.50;231333.00;;;;5029940;28;20232;-73
2021/12/21 03:41:10;;;;;;;0.10;0.10;;;0.70;99.90;226.50;231333.00;;;;5029605;28;20766;-73
2021/12/21 03:43:39;;;;;;;0.10;0.10;;;0.70;99.90;226.50;231333.00;;;;5030061;28;20203;-74
2021/12/21 03:46:10;;;;;;;0.20;0.20;;;0.80;99.90;226.50;231333.00;;;;5029802;28;20248;-73
2021/12/21 03:48:42;;;;;;;0.10;0.10;;;0.80;99.90;226.50;231333.00;;;;5030125;28;20222;-74
2021/12/21 03:51:11;;;;;;;0.20;0.20;;;0.90;99.90;226.50;231333.00;;;;5024990;28;20226;-73
2021/12/21 03:53:40;;;;;;;0.10;0.10;;;0.90;99.90;226.50;231333.00;;;;5033358;28;20242;-73
2021/12/21 03:56:25;;;;;;;0.10;0.10;;;1.00;99.90;226.50;231333.00;;;;5032713;28;20199;-73
2021/12/21 03:58:55;;;;;;;0.10;0.10;;;1.10;99.90;226.50;231333.00;;;;5031469;28;20252;-72
2021/12/21 04:01:23;;;;;;;0.10;0.10;;;1.10;99.90;226.50;231333.00;;;;5032732;28;20263;-73
2021/12/21 04:03:51;;;;;;;0.10;0.10;;;1.20;99.90;226.50;231333.00;;;;5032127;28;20199;-73
2021/12/21 04:06:20;;;;;;;0.10;0.10;;;1.20;99.90;226.50;231333.00;;;;5032836;28;20294;-74
2021/12/21 04:08:48;;;;;;;0.10;0.10;;;1.10;99.90;226.50;231333.00;;;;5033712;28;20194;-75
2021/12/21 04:11:16;;;;;;;0.10;0.10;;;1.10;99.90;226.50;231333.00;;;;5032783;28;20226;-75
2021/12/21 04:13:45;;;;;;;0.10;0.10;;;1.20;99.90;226.50;231333.00;;;;5032997;28;20268;-73
2021/12/21 04:16:14;;;;;;;0.13;0.13;;;1.10;99.90;226.50;231333.00;;;;5032430;28;20268;-73
2021/12/21 04:18:42;;;;;;;0.10;0.10;;;1.00;99.90;226.50;231333.00;;;;5031038;28;20241;-72
2021/12/21 04:21:13;;;;;;;0.10;0.10;;;1.00;99.90;226.50;231333.00;;;;5032637;28;20412;-73
2021/12/21 04:23:43;;;;;;;0.10;0.10;;;1.00;99.90;226.50;231333.00;;;;5033022;28;20265;-74
2021/12/21 04:26:13;;;;;;;0.10;0.10;;;1.10;99.90;226.50;231333.00;;;;5032068;28;20261;-73
2021/12/21 04:28:42;;;;;;;0.20;0.20;;;1.10;99.90;226.50;231333.00;;;;5033197;28;20191;-74
2021/12/21 04:31:11;;;;;;;0.10;0.10;;;1.20;99.90;226.50;231333.00;;;;5039945;28;20264;-74
2021/12/21 04:33:43;;;;;;;0.15;0.15;;;1.30;99.90;226.50;231333.00;;;;5031533;28;20218;-74
2021/12/21 04:36:13;;;;;;;0.10;0.10;;;1.30;99.90;226.50;231333.00;;;;5031603;28;20195;-74
2021/12/21 04:38:45;;;;;;;0.10;0.10;;;1.20;99.90;226.50;231333.00;;;;5033314;28;20556;-73
2021/12/21 04:41:22;;;;;;;0.10;0.10;;;1.20;99.90;226.50;231333.00;;;;5032774;28;20261;-73
2021/12/21 04:43:52;;;;;;;0.10;0.10;;;1.30;99.90;226.50;231333.00;;;;5032968;28;20281;-73
2021/12/21 04:46:20;;;;;;;0.10;0.10;;;1.20;99.90;226.50;231333.00;;;;5029024;28;20629;-73
2021/12/21 04:48:51;;;;;;;0.10;0.10;;;1.20;99.90;226.50;231333.00;;;;5032734;28;20615;-73
2021/12/21 04:51:20;;;;;;;0.10;0.10;;;1.40;99.90;226.50;231333.00;;;;5046081;28;20631;-73
2021/12/21 04:53:48;;;;;;;0.10;0.10;;;1.50;99.90;226.50;231333.00;;;;5032375;28;20617;-73
2021/12/21 04:56:16;;;;;;;0.10;0.10;;;1.50;99.90;226.50;231333.00;;;;5031125;28;20679;-73
2021/12/21 04:58:44;;;;;;;0.10;0.10;;;1.60;99.90;226.50;231333.00;;;;5032245;28;20206;-73
2021/12/21 05:01:13;;;;;;;0.10;0.10;;;1.60;99.90;226.50;231333.00;;;;5032363;28;20272;-74
2021/12/21 05:03:41;;;;;;;0.10;0.10;;;1.60;99.90;226.50;231333.00;;;;5031536;28;20250;-73
2021/12/21 05:06:10;;;;;;;0.10;0.10;;;1.40;99.90;226.50;231333.00;;;;5044035;28;20200;-73
2021/12/21 05:08:39;;;;;;;0.10;0.10;;;1.40;99.90;226.50;231333.00;;;;5047810;28;20191;-74
2021/12/21 05:11:08;;;;;;;0.10;0.10;;;1.40;99.90;226.50;231333.00;;;;5032241;28;20280;-72
2021/12/21 05:13:39;;;;;;;0.10;0.10;;;1.20;99.90;226.50;231333.00;;;;5027358;28;20199;-73
2021/12/21 05:16:07;;;;;;;0.10;0.10;;;1.10;99.90;226.50;231333.00;;;;5026088;28;20199;-73
2021/12/21 05:18:35;;;;;;;0.10;0.10;;;1.20;99.90;226.50;231333.00;;;;5027427;28;20596;-74
2021/12/21 05:21:04;;;;;;;0.10;0.10;;;1.20;99.90;226.50;231333.00;;;;5046067;28;20211;-74
2021/12/21 05:23:34;;;;;;;0.10;0.10;;;1.30;99.90;226.50;231333.00;;;;5031984;28;20746;-74
2021/12/21 05:26:02;;;;;;;0.10;0.10;;;1.40;99.90;226.50;231333.00;;;;5026141;28;20698;-73
2021/12/21 05:28:30;;;;;;;0.10;0.10;;;1.20;99.90;226.50;231333.00;;;;5032530;28;20598;-73
2021/12/21 05:30:58;;;;;;;0.10;0.10;;;1.00;99.90;226.50;231333.00;;;;5031785;28;20730;-73
2021/12/21 05:33:28;;;;;;;0.10;0.10;;;1.00;99.90;226.50;231333.00;;;;5020731;28;20663;-73
2021/12/21 05:35:56;;;;;;;0.10;0.10;;;1.00;99.90;226.50;231333.00;;;;5027617;28;20218;-73
2021/12/21 05:38:31;;;;;;;0.10;0.10;;;0.90;99.90;226.50;231333.00;;;;5026015;28;20802;-73
2021/12/21 05:41:04;;;;;;;0.10;0.10;;;0.90;99.90;226.50;231333.00;;;;5027592;28;20210;-72
2021/12/21 05:43:32;;;;;;;0.10;0.10;;;1.00;99.90;226.50;231333.00;;;;5027291;28;20531;-73
2021/12/21 05:46:00;;;;;;;0.20;0.20;;;1.10;99.90;226.50;231333.00;;;;5041010;28;20203;-74
2021/12/21 05:48:28;;;;;;;0.10;0.10;;;1.30;99.90;226.50;231333.00;;;;5031424;28;20692;-73
2021/12/21 05:50:56;;;;;;;0.17;0.17;;;1.50;99.90;226.50;231333.00;;;;5030213;28;20793;-73
2021/12/21 05:53:24;;;;;;;0.10;0.10;;;1.50;99.90;226.50;231333.00;;;;5031110;28;20184;-73
2021/12/21 05:55:55;;;;;;;0.10;0.10;;;1.60;99.90;226.50;231333.00;;;;5030254;28;20785;-73
2021/12/21 05:58:24;;;;;;;0.10;0.10;;;1.60;99.90;226.50;231333.00;;;;5028784;28;20253;-73
2021/12/21 06:00:54;;;;;;;0.10;0.10;;;1.60;99.90;226.50;231333.00;;;;5033374;28;20307;-74
2021/12/21 06:03:22;;;;;;;0.10;0.10;;;1.70;99.90;226.50;231333.00;;;;5028810;28;20683;-73
2021/12/21 06:05:55;;;;;;;0.10;0.10;;;1.80;99.90;226.50;231333.00;;;;5027497;28;20211;-74
2021/12/21 06:08:24;;;;;;;0.10;0.10;;;1.90;99.90;226.50;231333.00;;;;5025798;28;20286;-74
2021/12/21 06:10:55;;;;;;;0.10;0.10;;;1.90;99.90;226.50;231333.00;;;;5037075;28;20203;-73
2021/12/21 06:13:47;;;;;;;0.10;0.10;;;1.90;99.90;226.50;231333.00;;;;5030420;28;20191;-74
2021/12/21 06:16:29;;;;;;;0.10;0.10;;;1.80;99.90;226.50;231333.00;;;;5030315;28;20218;-74
2021/12/21 06:27:16;;;;;;;0.10;0.10;;;1.30;99.90;226.50;231333.00;;;;5027815;28;20207;-73
2021/12/21 06:29:47;;;;;;;0.10;0.10;;;1.30;99.90;226.50;231333.00;;;;5031975;28;20656;-75
2021/12/21 06:32:15;;;;;;;0.10;0.10;;;1.30;99.90;226.50;231333.00;;;;5031458;28;20245;-74
2021/12/21 06:34:44;;;;;;;0.20;0.20;;;1.40;99.90;226.50;231333.00;;;;5024675;28;20628;-73
2021/12/21 06:37:13;;;;;;;0.10;0.10;;;1.50;99.90;226.50;231333.00;;;;5031813;28;20687;-72
2021/12/21 06:39:42;;;;;;;0.10;0.10;;;1.50;99.90;226.50;231333.00;;;;5034567;28;20221;-75
2021/12/21 06:42:12;;;;;;;0.10;0.10;;;1.50;99.90;226.50;231333.00;;;;5035713;28;20211;-74
2021/12/21 06:44:43;;;;;;;0.10;0.10;;;1.60;99.90;226.50;231333.00;;;;5028294;28;20211;-73
2021/12/21 06:52:46;;;;;;;0.10;0.10;;;1.50;99.90;226.50;231333.00;;;;5083694;22;20256;-72
2021/12/21 06:55:14;;;;;;;0.15;0.15;;;1.60;99.90;226.50;231333.00;;;;5063675;28;20217;-72
2021/12/21 06:57:43;;;;;;;0.10;0.10;;;1.40;99.90;226.50;231333.00;;;;5054028;28;20252;-73
2021/12/21 07:00:13;;;;;;;0.10;0.10;;;1.20;99.90;226.50;231333.00;;;;5040915;28;20198;-72
2021/12/21 07:02:43;;;;;;;0.10;0.10;;;1.10;99.90;226.50;231333.00;;;;5045270;28;20554;-73
2021/12/21 07:05:13;;;;;;;0.10;0.10;;;1.20;99.90;226.50;231333.00;;;;5038555;28;20213;-72
2021/12/21 07:07:42;;;;;;;0.10;0.10;;;1.10;99.90;226.50;231333.00;;;;5040929;28;20252;-72
2021/12/21 07:10:21;;;;;;;0.10;0.10;;;1.00;99.90;226.50;231333.00;;;;5035929;28;20214;-72
2021/12/21 07:18:29;;;;;;;0.10;0.10;;;0.70;99.90;226.50;231333.00;;;;5042550;28;20198;-73
2021/12/21 07:20:59;;;;;;;0.10;0.10;;;0.60;99.90;226.50;231333.00;;;;5049138;28;20625;-72
2021/12/21 07:23:28;;;;;;;0.20;0.20;;;0.70;99.90;226.50;231333.00;;;;5045028;28;20732;-73
2021/12/21 07:25:56;;;;;;;0.10;0.10;;;0.60;99.90;226.50;231333.00;;;;5031314;28;20195;-72
2021/12/21 07:28:24;;;;;;;0.10;0.10;;;0.50;99.90;226.50;231333.00;;;;5036032;28;20195;-72
2021/12/21 07:30:52;;;;;;;0.10;0.10;;;0.50;99.90;226.50;231333.00;;;;5054560;28;20187;-72
2021/12/21 07:33:22;;;;;;;0.10;0.10;;;0.50;99.90;226.50;231333.00;;;;5041866;28;20608;-72
2021/12/21 07:35:50;;;;;;;0.10;0.10;;;0.50;99.90;226.50;231333.00;;;;5049854;28;20297;-72
2021/12/21 07:38:19;;;;;;;0.10;0.10;;;0.60;99.90;226.50;231333.00;;;;5046637;28;20206;-73
2021/12/21 07:40:47;;;;;;;0.10;0.10;;;0.60;99.90;226.50;231333.00;;;;5049757;28;20194;-72
2021/12/21 07:43:15;;;;;;;0.10;0.10;;;0.70;99.90;226.50;231333.00;;;;5042736;28;20207;-73
2021/12/21 07:45:43;;;;;;;0.20;0.20;;;0.80;99.90;226.50;231333.00;;;;5037846;28;20241;-72
2021/12/21 07:48:12;;;;;;;0.10;0.10;;;0.80;99.90;226.50;231333.00;;;;5043594;28;20237;-73
2021/12/21 07:50:43;;;;;;;0.10;0.10;;;0.80;99.90;226.50;231333.00;;;;5052217;28;20195;-72
2021/12/21 07:53:11;;;;;;;0.10;0.10;;;0.70;99.90;226.50;231333.00;;;;5053038;28;20803;-73
2021/12/21 07:55:39;;;;;;;0.10;0.10;;;0.80;99.90;226.50;231333.00;;;;5044143;28;20218;-73
2021/12/21 07:58:08;;;;;;;0.13;0.13;;;0.70;99.90;226.50;231333.00;;;;5055929;28;20695;-72
2021/12/21 08:00:36;;;;;;;0.20;0.20;;;0.70;99.90;226.50;231333.00;;;;5053505;28;20199;-72
2021/12/21 08:03:05;;;;;;;0.10;0.10;;;0.70;99.90;226.50;231333.00;;;;5041905;28;20242;-73
2021/12/21 08:05:34;;;;;;;0.20;0.20;;;0.70;99.90;226.50;231333.00;;;;5029883;28;20282;-73
2021/12/21 08:08:12;;;;;;;0.10;0.10;;;0.70;99.90;226.50;231333.00;;;;5048505;28;20257;-72
2021/12/21 08:10:43;;;;;;;0.10;0.10;;;0.70;99.90;226.50;231333.00;;;;5051991;28;20199;-72
2021/12/21 08:13:11;;;;;;;0.20;0.20;;;0.70;99.90;226.50;231333.00;;;;5050109;28;20190;-72
2021/12/21 08:15:40;;;;;;;0.10;0.10;;;0.80;99.90;226.50;231333.00;;;;5039513;28;20781;-73
2021/12/21 08:18:08;;;;;;;0.10;0.10;;;0.80;99.90;226.50;231333.00;;;;5048750;28;20202;-72
2021/12/21 08:20:37;;;;;;;0.10;0.10;;;0.80;99.90;226.50;231333.00;;;;5050247;28;20194;-72
2021/12/21 08:23:06;;;;;;;0.10;0.10;;;0.80;99.90;226.50;231333.00;;;;5048085;28;20211;-72
2021/12/21 08:25:36;;;;;;;0.10;0.10;;;0.80;99.90;226.50;231333.00;;;;5040379;28;20253;-73
2021/12/21 08:28:08;;;;;;;0.10;0.10;;;0.70;99.90;226.50;231333.00;;;;5042029;28;20194;-72
2021/12/21 08:30:36;;;;;;;0.10;0.10;;;0.60;99.90;226.50;231333.00;;;;5044026;28;20186;-73
2021/12/21 08:33:05;;;;;;;0.10;0.10;;;0.70;99.90;226.50;231333.00;;;;5051978;28;20245;-73
2021/12/21 08:35:34;;;;;;;0.10;0.10;;;0.80;99.90;226.50;231333.00;;;;5033064;28;20765;-73
2021/12/21 08:38:05;;;;;;;0.10;0.10;;;0.80;99.90;226.50;231333.00;;;;5034089;28;20411;-73
2021/12/21 08:40:39;;;;;;;0.10;0.10;;;0.80;99.90;226.50;231333.00;;;;5037268;28;20203;-73
2021/12/21 08:43:11;;;;;;;0.10;0.10;;;0.80;99.90;226.50;231333.00;;;;5032262;28;20215;-73
2021/12/21 08:45:42;;;;;;;0.20;0.20;;;0.70;99.90;226.50;231333.00;;;;5034561;28;20203;-73
2021/12/21 08:48:12;;;;;;;0.20;0.20;;;0.70;99.90;226.50;231333.00;;;;5052484;28;20194;-73
2021/12/21 08:50:41;;;;;;;0.10;0.10;;;0.70;99.90;226.50;231333.00;;;;5052954;28;20190;-73
2021/12/21 08:53:09;;;;;;;0.15;0.15;;;0.70;99.90;226.50;231333.00;;;;5049842;28;20222;-73
2021/12/21 08:55:38;;;;;;;0.10;0.10;;;0.70;99.90;226.50;231333.00;;;;5027817;28;20214;-73
2021/12/21 08:58:06;;;;;;;0.13;0.13;;;0.70;99.90;226.50;231333.00;;;;5035025;28;20187;-73
2021/12/21 09:00:35;;;;;;;0.10;0.10;;;0.70;99.90;226.50;231333.00;;;;5037042;28;20194;-73
2021/12/21 09:03:03;;;;;;;0.10;0.10;;;0.70;99.90;226.50;231333.00;;;;5050958;28;20304;-73
2021/12/21 09:05:32;;;;;;;0.10;0.10;;;0.80;99.90;226.50;231333.00;;;;5041946;28;20667;-72
2021/12/21 09:08:03;;;;;;;0.10;0.10;;;0.80;99.90;226.50;231333.00;;;;5040142;28;20202;-73
2021/12/21 09:10:32;;;;;;;0.10;0.10;;;0.80;99.90;226.50;231333.00;;;;5041839;28;20747;-73
2021/12/21 09:13:02;;;;;;;0.10;0.10;;;0.80;99.90;226.50;231333.00;;;;5032885;28;20215;-73
2021/12/21 09:15:31;;;;;;;0.13;0.13;;;0.90;99.90;226.50;231333.00;;;;5036933;28;20195;-73
2021/12/21 09:17:59;;;;;;;0.10;0.10;;;0.90;99.90;226.50;231333.00;;;;5039895;28;20199;-73
2021/12/21 09:20:30;;;;;;;0.10;0.10;;;1.10;99.90;226.50;231333.00;;;;5037320;28;20905;-73
2021/12/21 09:22:59;;;;;;;0.10;0.10;;;1.10;99.90;226.50;231333.00;;;;5038144;28;20616;-73
2021/12/21 09:25:29;;;;;;;0.10;0.10;;;1.10;99.90;226.50;231333.00;;;;5032950;28;20618;-72
2021/12/21 09:27:58;;;;;;;0.10;0.10;;;1.20;99.90;226.50;231333.00;;;;5048223;28;20617;-72
2021/12/21 09:30:29;;;;;;;0.10;0.10;;;1.20;99.90;226.50;231333.00;;;;5041181;28;20304;-72
2021/12/21 09:32:58;;;;;;;0.10;0.10;;;1.30;99.90;226.50;231333.00;;;;5032476;28;20219;-73
2021/12/21 09:35:28;;;;;;;0.10;0.10;;;1.30;99.90;226.50;231333.00;;;;5032436;28;20199;-73
2021/12/21 09:37:57;;;;;;;0.10;0.10;;;1.30;99.90;226.50;231333.00;;;;5048296;28;20221;-73
2021/12/21 09:40:28;;;;;;;0.20;0.20;;;1.40;99.90;226.50;231333.00;;;;5034840;28;20195;-72
2021/12/21 09:42:59;;;;;;;0.10;0.10;;;1.40;99.90;226.50;231333.00;;;;5032420;28;20573;-72
2021/12/21 09:45:28;;;;;;;0.10;0.10;;;1.60;99.90;226.50;231333.00;;;;5045201;28;20198;-71
2021/12/21 09:47:56;;;;;;;0.10;0.10;;;1.60;99.90;226.50;231333.00;;;;5042834;28;20695;-73
2021/12/21 09:50:26;;;;;;;0.10;0.10;;;1.60;99.90;226.50;231333.00;;;;5041035;28;20209;-73
2021/12/21 09:52:55;;;;;;;0.10;0.10;;;1.70;99.90;226.50;231333.00;;;;5035197;28;20227;-73
2021/12/21 09:55:24;;;;;;;0.10;0.10;;;1.70;99.90;226.50;231333.00;;;;5033646;28;20187;-73
2021/12/21 09:57:53;;;;;;;0.15;0.15;;;1.70;99.90;226.50;231333.00;;;;5033680;28;20229;-73
2021/12/21 10:00:27;;;;;;;0.10;0.10;;;1.80;99.90;226.50;231333.00;;;;5051159;28;20253;-71
2021/12/21 10:03:02;;;;;;;0.10;0.10;;;1.80;99.90;226.50;231333.00;;;;5040014;28;20209;-71
2021/12/21 10:05:35;;;;;;;0.10;0.10;;;1.80;99.90;226.50;231333.00;;;;5034557;28;20281;-71
2021/12/21 10:08:08;;;;;;;0.10;0.10;;;1.80;99.90;226.50;231333.00;;;;5041960;28;20249;-72
2021/12/21 10:10:40;;;;;;;0.10;0.10;;;1.80;99.90;226.50;231333.00;;;;5032970;28;20262;-72
2021/12/21 10:13:11;;;;;;;0.10;0.10;;;1.70;99.90;226.50;231333.00;;;;5041229;28;20229;-71
2021/12/21 10:15:45;;;;;;;0.10;0.10;;;1.70;99.90;226.50;231333.00;;;;5048053;28;20190;-72
2021/12/21 10:18:21;;;;;;;0.10;0.10;;;1.70;99.90;226.50;231333.00;;;;5046980;28;20276;-71
2021/12/21 10:20:50;;;;;;;0.10;0.10;;;1.60;99.90;226.50;231333.00;;;;5038126;28;20559;-71
2021/12/21 10:23:23;;;;;;;0.10;0.10;;;1.50;99.90;226.50;231333.00;;;;5042788;28;20202;-73
2021/12/21 10:25:55;;;;;;;0.20;0.20;;;1.50;99.90;226.50;231333.00;;;;5048192;28;20310;-73
2021/12/21 10:28:30;;;;;;;0.10;0.10;;;1.50;99.90;226.50;231333.00;;;;5038940;28;20226;-71
2021/12/21 10:31:02;;;;;;;0.10;0.10;;;1.60;99.90;226.50;231333.00;;;;5039671;28;20240;-71
2021/12/21 10:33:35;;;;;;;0.10;0.10;;;1.70;99.90;226.50;231333.00;;;;5046893;28;20186;-71
2021/12/21 10:36:09;;;;;;;0.10;0.10;;;1.80;99.90;226.50;231333.00;;;;5049313;28;20213;-71
2021/12/21 10:38:48;;;;;;;0.17;0.17;;;1.80;99.90;226.50;231333.00;;;;5050764;28;20218;-73
2021/12/21 10:41:20;;;;;;;0.10;0.10;;;1.80;99.90;226.50;231333.00;;;;5037284;28;20227;-73
2021/12/21 10:43:59;;;;;;;0.10;0.10;;;1.80;99.90;226.50;231333.00;;;;5026989;28;20478;-71
2021/12/21 10:46:29;;;;;;;0.10;0.10;;;2.00;99.90;226.50;231333.00;;;;5024445;28;20194;-74
2021/12/21 10:49:08;;;;;;;0.10;0.10;;;2.00;99.90;226.50;231333.00;;;;5028456;28;20534;-73
2021/12/21 10:51:37;;;;;;;0.10;0.10;;;2.00;99.90;226.50;231333.00;;;;5033399;28;20249;-73
2021/12/21 10:54:05;;;;;;;0.17;0.17;;;2.00;99.90;226.50;231333.00;;;;5039298;28;20221;-74
2021/12/21 10:56:34;;;;;;;0.10;0.10;;;2.10;99.90;226.50;231333.00;;;;5038790;28;20281;-72
2021/12/21 10:59:12;;;;;;;0.10;0.10;;;2.10;99.90;226.50;231333.00;;;;5046563;28;20229;-72
2021/12/21 11:01:45;;;;;;;0.10;0.10;;;2.20;99.90;226.50;231333.00;;;;5041502;28;20215;-73
2021/12/21 11:04:16;;;;;;;0.10;0.10;;;2.20;99.90;226.50;231333.00;;;;5042889;28;20202;-72
2021/12/21 11:06:49;;;;;;;0.10;0.10;;;2.30;99.90;226.50;231333.00;;;;5039737;28;20195;-72
2021/12/21 11:09:17;;;;;;;0.10;0.10;;;2.40;99.90;226.50;231333.00;;;;5035886;28;20217;-72
2021/12/21 11:11:49;;;;;;;0.10;0.10;;;2.40;99.90;226.50;231333.00;;;;5041283;28;20921;-72
2021/12/21 11:14:19;;;;;;;0.10;0.10;;;2.50;99.90;226.50;231333.00;;;;5052130;28;20286;-72
2021/12/21 11:16:50;;;;;;;0.10;0.10;;;2.60;99.90;226.50;231333.00;;;;5054258;28;20190;-73
2021/12/21 11:19:23;;;;;;;0.10;0.10;;;2.60;99.90;226.50;231333.00;;;;5047520;28;20191;-72
2021/12/21 11:21:56;;;;;;;0.10;0.10;;;2.60;99.90;226.50;231333.00;;;;5046959;28;20268;-72
2021/12/21 11:24:27;;;;;;;0.10;0.10;;;2.70;99.90;226.50;231333.00;;;;5039784;28;20558;-72
2021/12/21 11:26:56;;;;;;;0.10;0.10;;;2.70;99.90;226.50;231333.00;;;;5037381;28;20198;-72
2021/12/21 11:29:26;;;;;;;0.10;0.10;;;2.80;99.90;226.50;231333.00;;;;5041277;28;20241;-73
2021/12/21 11:31:57;;;;;;;0.10;0.10;;;2.90;99.90;226.50;231333.00;;;;5039447;28;20226;-72
2021/12/21 11:34:32;;;;;;;0.10;0.10;;;3.00;99.90;226.50;231333.00;;;;5048384;28;21740;-72